Time;durP1;ratioP1;P1;durP2;ratioP2;P2;SDS_P1;SDS_P2;PMS_P1;PMS_P2;Temp;Humidity;BMP_temperature;BMP_pressure;BME280_temperature;BME280_humidity;BME280_pressure;Samples;Min_cycle;Max_cycle;Signal;HPM_P1;HPM_P2
2021/05/20 00:01:22;;;;;;;8.20;7.18;;;;;;;;;;5015959;28;20026;-80
2021/05/20 00:03:49;;;;;;;7.60;6.82;;;;;;;;;;5015787;28;20041;-81
2021/05/20 00:06:15;;;;;;;8.40;7.45;;;;;;;;;;5015804;28;20038;-82
2021/05/20 00:08:41;;;;;;;7.40;6.70;;;;;;;;;;5015970;28;20038;-82
2021/05/20 00:11:07;;;;;;;7.57;6.88;;;;;;;;;;5015877;28;20028;-83
2021/05/20 00:13:33;;;;;;;8.15;7.32;;;;;;;;;;5015855;28;20026;-82
2021/05/20 00:15:59;;;;;;;9.73;7.03;;;;;;;;;;5015227;28;20032;-82
2021/05/20 00:18:25;;;;;;;8.55;6.93;;;;;;;;;;5015658;28;20034;-82
2021/05/20 00:20:51;;;;;;;8.23;7.40;;;;;;;;;;5015551;28;20476;-82
2021/05/20 00:23:17;;;;;;;7.82;7.07;;;;;;;;;;5015469;28;20026;-82
2021/05/20 00:25:43;;;;;;;7.63;6.82;;;;;;;;;;5015787;28;20353;-76
2021/05/20 00:28:09;;;;;;;7.75;7.03;;;;;;;;;;5015279;28;20080;-76
2021/05/20 00:30:36;;;;;;;9.18;7.65;;;;;;;;;;5015407;28;20030;-76
2021/05/20 00:33:02;;;;;;;8.38;7.43;;;;;;;;;;5015451;28;20022;-75
2021/05/20 00:35:28;;;;;;;8.30;7.50;;;;;;;;;;5015894;28;20045;-75
2021/05/20 00:37:54;;;;;;;8.68;7.25;;;;;;;;;;5015123;28;20380;-75
2021/05/20 00:40:20;;;;;;;11.73;7.95;;;;;;;;;;5015110;28;20427;-83
2021/05/20 00:42:46;;;;;;;7.93;7.22;;;;;;;;;;5015380;28;20025;-83
2021/05/20 00:45:13;;;;;;;8.70;7.80;;;;;;;;;;5014990;28;20159;-82
2021/05/20 00:47:39;;;;;;;7.38;6.68;;;;;;;;;;5015285;28;20062;-82
2021/05/20 00:50:06;;;;;;;8.80;7.90;;;;;;;;;;5014676;28;20034;-73
2021/05/20 00:52:32;;;;;;;8.73;7.88;;;;;;;;;;5014864;28;20030;-73
2021/05/20 00:54:59;;;;;;;7.85;7.15;;;;;;;;;;5014910;28;20447;-73
2021/05/20 00:57:25;;;;;;;9.05;8.13;;;;;;;;;;5014292;28;20396;-73
2021/05/20 00:59:51;;;;;;;8.70;7.80;;;;;;;;;;5014570;28;20156;-74
2021/05/20 01:02:17;;;;;;;7.55;6.85;;;;;;;;;;5014733;28;20029;-73
2021/05/20 01:04:43;;;;;;;7.68;6.78;;;;;;;;;;5015229;28;20046;-73
2021/05/20 01:07:09;;;;;;;7.78;6.90;;;;;;;;;;5014782;28;20053;-74
2021/05/20 01:09:35;;;;;;;7.45;6.78;;;;;;;;;;5014912;28;20041;-74
2021/05/20 01:12:02;;;;;;;8.73;7.78;;;;;;;;;;5014707;28;20030;-74
2021/05/20 01:14:28;;;;;;;7.68;6.97;;;;;;;;;;5014762;28;20026;-74
2021/05/20 01:16:54;;;;;;;8.05;7.25;;;;;;;;;;5014486;28;20026;-74
2021/05/20 01:19:20;;;;;;;7.53;6.82;;;;;;;;;;5015140;28;20064;-74
2021/05/20 01:21:46;;;;;;;8.32;7.10;;;;;;;;;;5014770;28;20026;-73
2021/05/20 01:24:13;;;;;;;8.98;7.20;;;;;;;;;;5014478;28;20157;-74
2021/05/20 01:26:39;;;;;;;10.35;7.20;;;;;;;;;;5014565;28;20033;-74
2021/05/20 01:29:05;;;;;;;8.20;7.43;;;;;;;;;;5014031;28;20033;-74
2021/05/20 01:31:32;;;;;;;7.55;6.85;;;;;;;;;;5014463;28;20061;-73
2021/05/20 01:33:58;;;;;;;8.43;7.63;;;;;;;;;;5014360;28;20062;-74
2021/05/20 01:36:26;;;;;;;7.95;6.97;;;;;;;;;;5014988;28;20018;-73
2021/05/20 01:38:53;;;;;;;7.40;6.65;;;;;;;;;;5014901;28;20037;-74
2021/05/20 01:41:19;;;;;;;8.32;7.47;;;;;;;;;;5014427;28;20033;-73
2021/05/20 01:43:45;;;;;;;7.60;6.93;;;;;;;;;;5014078;28;20530;-74
2021/05/20 01:46:11;;;;;;;8.32;6.50;;;;;;;;;;5014200;28;20538;-74
2021/05/20 01:48:41;;;;;;;8.35;7.15;;;;;;;;;;5014530;28;20045;-74
2021/05/20 01:51:08;;;;;;;8.32;7.55;;;;;;;;;;5014775;28;20026;-74
2021/05/20 01:53:34;;;;;;;7.53;6.82;;;;;;;;;;5014103;28;20021;-73
2021/05/20 01:56:01;;;;;;;7.63;6.93;;;;;;;;;;5013968;28;20034;-74
2021/05/20 01:58:27;;;;;;;7.20;6.43;;;;;;;;;;5014088;28;20120;-73
2021/05/20 02:00:53;;;;;;;8.07;7.28;;;;;;;;;;5014389;28;20040;-73
2021/05/20 02:03:19;;;;;;;8.15;7.35;;;;;;;;;;5013666;28;20026;-74
2021/05/20 02:05:45;;;;;;;8.13;6.97;;;;;;;;;;5013981;28;20054;-74
2021/05/20 02:08:11;;;;;;;7.93;7.25;;;;;;;;;;5015518;28;20531;-74
2021/05/20 02:10:37;;;;;;;7.00;6.40;;;;;;;;;;5017887;28;20471;-74
2021/05/20 02:13:04;;;;;;;7.30;6.70;;;;;;;;;;5017964;28;20026;-74
2021/05/20 02:15:30;;;;;;;9.15;7.80;;;;;;;;;;5018065;28;20034;-73
2021/05/20 02:17:56;;;;;;;7.75;7.03;;;;;;;;;;5018199;28;20034;-74
2021/05/20 02:20:22;;;;;;;6.97;6.28;;;;;;;;;;5018039;28;20113;-74
2021/05/20 02:22:49;;;;;;;6.72;6.13;;;;;;;;;;5017849;28;20030;-73
2021/05/20 02:25:15;;;;;;;7.95;7.15;;;;;;;;;;5017950;28;20036;-73
2021/05/20 02:27:41;;;;;;;7.32;6.63;;;;;;;;;;5017291;28;20391;-73
2021/05/20 02:30:08;;;;;;;7.05;6.43;;;;;;;;;;5017336;28;20095;-74
2021/05/20 02:32:34;;;;;;;7.25;6.55;;;;;;;;;;5017781;28;20368;-74
2021/05/20 02:35:00;;;;;;;7.00;6.30;;;;;;;;;;5017886;28;20068;-73
2021/05/20 02:37:26;;;;;;;7.43;6.72;;;;;;;;;;5018006;28;20029;-74
2021/05/20 02:39:52;;;;;;;7.47;6.70;;;;;;;;;;5017678;28;20114;-73
2021/05/20 02:42:18;;;;;;;7.32;6.72;;;;;;;;;;5017240;28;20032;-74
2021/05/20 02:44:44;;;;;;;7.25;6.55;;;;;;;;;;5017660;28;20034;-74
2021/05/20 02:47:10;;;;;;;7.25;6.40;;;;;;;;;;5017559;28;20376;-74
2021/05/20 02:49:36;;;;;;;7.07;6.47;;;;;;;;;;5017352;28;20042;-74
2021/05/20 02:52:02;;;;;;;6.90;6.30;;;;;;;;;;5017015;28;20022;-74
2021/05/20 02:54:28;;;;;;;8.18;6.03;;;;;;;;;;5017239;28;20379;-74
2021/05/20 02:56:54;;;;;;;6.20;5.63;;;;;;;;;;5017088;28;20104;-73
2021/05/20 02:59:21;;;;;;;6.38;5.78;;;;;;;;;;5017029;28;20057;-74
2021/05/20 03:01:47;;;;;;;7.70;6.93;;;;;;;;;;5017153;28;20026;-74
2021/05/20 03:04:13;;;;;;;7.57;6.72;;;;;;;;;;5017013;28;20049;-74
2021/05/20 03:06:40;;;;;;;8.65;7.35;;;;;;;;;;5017537;28;20022;-74
2021/05/20 03:09:06;;;;;;;8.82;7.45;;;;;;;;;;5016804;28;20033;-74
2021/05/20 03:11:33;;;;;;;7.18;6.53;;;;;;;;;;5016689;28;20386;-74
2021/05/20 03:13:59;;;;;;;6.63;6.03;;;;;;;;;;5017028;28;20044;-74
2021/05/20 03:16:25;;;;;;;8.23;7.38;;;;;;;;;;5017505;28;20476;-74
2021/05/20 03:18:51;;;;;;;10.40;8.85;;;;;;;;;;5016545;28;20038;-73
2021/05/20 03:21:17;;;;;;;11.52;10.27;;;;;;;;;;5016254;28;20099;-74
2021/05/20 03:23:43;;;;;;;13.13;10.07;;;;;;;;;;5016691;28;20022;-73
2021/05/20 03:26:09;;;;;;;12.75;9.88;;;;;;;;;;5016116;28;20361;-74
2021/05/20 03:28:35;;;;;;;18.15;10.90;;;;;;;;;;5016447;28;20045;-74
2021/05/20 03:31:01;;;;;;;15.82;12.10;;;;;;;;;;5016655;28;20030;-74
2021/05/20 03:33:27;;;;;;;15.00;11.73;;;;;;;;;;5016803;28;20102;-74
2021/05/20 03:35:56;;;;;;;15.05;10.25;;;;;;;;;;5016712;28;20029;-73
2021/05/20 03:38:22;;;;;;;15.90;12.02;;;;;;;;;;5016468;28;20018;-73
2021/05/20 08:10:29;;;;;;;21.45;18.55;;;;;;;;;;5012192;28;20419;-76
2021/05/20 08:12:56;;;;;;;17.95;16.17;;;;;;;;;;4997798;28;20078;-74
2021/05/20 08:15:22;;;;;;;23.02;16.33;;;;;;;;;;4998635;28;20072;-75
2021/05/20 08:17:48;;;;;;;19.33;17.20;;;;;;;;;;4999615;28;20057;-73
2021/05/20 08:20:14;;;;;;;19.50;16.08;;;;;;;;;;4997187;28;20029;-74
2021/05/20 08:22:40;;;;;;;21.10;15.75;;;;;;;;;;4996843;28;20106;-72
2021/05/20 08:25:07;;;;;;;16.80;15.07;;;;;;;;;;4996450;28;20029;-73
2021/05/20 08:27:33;;;;;;;20.42;15.38;;;;;;;;;;4995979;28;20034;-73
2021/05/20 08:30:00;;;;;;;19.17;13.65;;;;;;;;;;4995204;28;20388;-72
2021/05/20 08:32:26;;;;;;;16.02;14.43;;;;;;;;;;4996385;28;20200;-73
2021/05/20 08:34:52;;;;;;;15.90;14.20;;;;;;;;;;4997060;28;20035;-74
2021/05/20 08:37:19;;;;;;;14.95;13.25;;;;;;;;;;4997313;28;20053;-74
2021/05/20 08:39:45;;;;;;;13.38;11.98;;;;;;;;;;4996714;28;20049;-76
2021/05/20 08:42:11;;;;;;;12.30;11.10;;;;;;;;;;4995136;28;20085;-73
2021/05/20 08:44:37;;;;;;;14.68;10.77;;;;;;;;;;4994758;28;20037;-74
2021/05/20 08:47:03;;;;;;;12.88;10.63;;;;;;;;;;4994051;28;20030;-75
2021/05/20 08:49:29;;;;;;;11.95;9.98;;;;;;;;;;4994382;28;20499;-75
2021/05/20 08:51:55;;;;;;;10.07;9.25;;;;;;;;;;4994639;28;20121;-75
2021/05/20 08:54:21;;;;;;;10.55;9.40;;;;;;;;;;4995328;28;20026;-75
2021/05/20 08:56:51;;;;;;;10.75;9.35;;;;;;;;;;4995089;28;20076;-74
2021/05/20 08:59:18;;;;;;;9.35;8.40;;;;;;;;;;4995550;28;20030;-73
2021/05/20 09:01:45;;;;;;;9.88;8.98;;;;;;;;;;4995087;28;20022;-74
2021/05/20 09:04:11;;;;;;;9.82;8.07;;;;;;;;;;4995285;28;20026;-74
2021/05/20 09:06:44;;;;;;;8.15;7.30;;;;;;;;;;4995260;28;20077;-74
2021/05/20 09:09:14;;;;;;;7.88;6.80;;;;;;;;;;4994572;28;20062;-74
2021/05/20 09:11:49;;;;;;;9.23;6.72;;;;;;;;;;5009308;28;20047;-74
2021/05/20 09:14:27;;;;;;;15.63;7.50;;;;;;;;;;5014712;28;20022;-74
2021/05/20 09:17:06;;;;;;;7.25;6.63;;;;;;;;;;5014529;28;20105;-74
2021/05/20 09:19:32;;;;;;;6.47;5.88;;;;;;;;;;5014534;28;20476;-74
2021/05/20 09:22:02;;;;;;;6.63;5.88;;;;;;;;;;5014423;28;20084;-75
2021/05/20 09:24:46;;;;;;;13.05;6.93;;;;;;;;;;5015372;28;20113;-77
2021/05/20 09:27:34;;;;;;;10.18;6.80;;;;;;;;;;5014272;28;20033;-77
2021/05/20 09:30:20;;;;;;;6.55;5.75;;;;;;;;;;4999963;28;20086;-76
2021/05/20 09:32:49;;;;;;;7.20;5.90;;;;;;;;;;5000491;28;20076;-76
2021/05/20 09:35:16;;;;;;;7.95;5.65;;;;;;;;;;5014668;28;20026;-76
2021/05/20 09:37:46;;;;;;;10.20;5.57;;;;;;;;;;5014754;28;20061;-76
2021/05/20 09:40:12;;;;;;;59.47;6.85;;;;;;;;;;5014554;28;20029;-76
2021/05/20 09:42:38;;;;;;;21.17;7.03;;;;;;;;;;5014530;28;20084;-76
2021/05/20 09:45:07;;;;;;;16.48;6.18;;;;;;;;;;5014906;28;20487;-76
2021/05/20 09:47:33;;;;;;;16.85;5.88;;;;;;;;;;5014813;28;20034;-76
2021/05/20 09:50:00;;;;;;;15.45;4.25;;;;;;;;;;5014570;28;20034;-77
2021/05/20 09:52:27;;;;;;;10.68;5.60;;;;;;;;;;5014258;28;20026;-77
2021/05/20 09:54:53;;;;;;;13.05;4.65;;;;;;;;;;5013862;28;20026;-76
2021/05/20 09:57:37;;;;;;;5.78;5.07;;;;;;;;;;5014007;28;20053;-77
2021/05/20 10:00:06;;;;;;;7.70;4.70;;;;;;;;;;5014322;28;20084;-78
2021/05/20 10:02:33;;;;;;;14.10;5.40;;;;;;;;;;5015180;28;20112;-79
2021/05/20 10:05:20;;;;;;;8.50;6.43;;;;;;;;;;5017033;28;20440;-77
2021/05/20 10:07:46;;;;;;;10.27;5.47;;;;;;;;;;5001698;28;20026;-77
2021/05/20 10:10:12;;;;;;;9.93;4.97;;;;;;;;;;5016674;28;20088;-75
2021/05/20 10:12:43;;;;;;;7.25;5.60;;;;;;;;;;5017314;28;20450;-76
2021/05/20 10:15:09;;;;;;;8.55;5.40;;;;;;;;;;5017091;28;20026;-78
2021/05/20 10:17:35;;;;;;;5.55;5.05;;;;;;;;;;5017639;28;20057;-79
2021/05/20 10:20:04;;;;;;;5.90;5.22;;;;;;;;;;5017091;28;20100;-77
2021/05/20 10:22:30;;;;;;;6.38;5.40;;;;;;;;;;5017120;28;20394;-79
2021/05/20 10:24:56;;;;;;;9.40;5.20;;;;;;;;;;5017210;28;20022;-78
2021/05/20 10:27:22;;;;;;;7.03;5.30;;;;;;;;;;5013768;28;20479;-78
2021/05/20 10:29:49;;;;;;;13.50;5.82;;;;;;;;;;5014770;28;20041;-78
2021/05/20 10:32:16;;;;;;;5.60;5.03;;;;;;;;;;5017307;28;20396;-78
2021/05/20 10:35:02;;;;;;;7.47;5.20;;;;;;;;;;5017689;28;20030;-78
2021/05/20 10:37:37;;;;;;;5.68;4.00;;;;;;;;;;5003353;28;20510;-77
2021/05/20 10:40:05;;;;;;;8.40;4.72;;;;;;;;;;5017425;28;20026;-78
2021/05/20 10:42:33;;;;;;;5.43;3.95;;;;;;;;;;5017539;28;20101;-78
2021/05/20 10:45:19;;;;;;;4.20;3.60;;;;;;;;;;5017208;28;20050;-78
2021/05/20 10:48:05;;;;;;;5.93;3.58;;;;;;;;;;5002963;28;20022;-78
2021/05/20 10:50:51;;;;;;;12.00;3.53;;;;;;;;;;5003023;28;20072;-79
2021/05/20 10:53:37;;;;;;;5.93;3.53;;;;;;;;;;5002816;28;20500;-78
2021/05/20 10:56:03;;;;;;;3.92;3.00;;;;;;;;;;5002858;28;20061;-78
2021/05/20 10:58:30;;;;;;;4.20;3.45;;;;;;;;;;5017839;28;20025;-78
2021/05/20 11:00:56;;;;;;;5.50;3.50;;;;;;;;;;5017673;28;20037;-78
2021/05/20 11:03:38;;;;;;;4.38;3.38;;;;;;;;;;5017086;28;20030;-78
2021/05/20 11:06:04;;;;;;;7.20;3.53;;;;;;;;;;5017075;28;20067;-78
2021/05/20 11:08:50;;;;;;;3.78;3.33;;;;;;;;;;5016768;28;20021;-78
2021/05/20 11:11:20;;;;;;;3.58;3.22;;;;;;;;;;5002680;28;20054;-78
2021/05/20 11:13:46;;;;;;;4.13;3.25;;;;;;;;;;5016910;28;20022;-78
2021/05/20 11:16:17;;;;;;;7.68;3.50;;;;;;;;;;5016691;28;20064;-78
2021/05/20 11:18:43;;;;;;;6.15;3.17;;;;;;;;;;5016832;28;20033;-78
2021/05/20 11:21:09;;;;;;;4.60;3.08;;;;;;;;;;5016543;28;20026;-78
2021/05/20 11:23:36;;;;;;;4.05;3.58;;;;;;;;;;5017008;28;20114;-77
2021/05/20 11:26:04;;;;;;;7.80;3.40;;;;;;;;;;5016493;28;20105;-77
2021/05/20 11:28:35;;;;;;;5.93;3.45;;;;;;;;;;5016831;28;20026;-78
2021/05/20 11:31:01;;;;;;;7.10;3.50;;;;;;;;;;5016570;28;20026;-78
2021/05/20 11:33:31;;;;;;;4.15;2.92;;;;;;;;;;5016337;28;20022;-77
2021/05/20 11:36:11;;;;;;;4.22;3.47;;;;;;;;;;5016660;28;20022;-77
2021/05/20 11:38:37;;;;;;;9.50;4.13;;;;;;;;;;5017349;28;20022;-76
2021/05/20 11:41:18;;;;;;;7.57;3.80;;;;;;;;;;5015789;28;20022;-76
2021/05/20 11:43:44;;;;;;;8.60;3.78;;;;;;;;;;5016406;28;20072;-74
2021/05/20 11:46:19;;;;;;;3.88;3.47;;;;;;;;;;5014833;28;20444;-75
2021/05/20 11:49:01;;;;;;;11.55;3.60;;;;;;;;;;5016356;28;20033;-74
2021/05/20 11:51:43;;;;;;;5.25;3.30;;;;;;;;;;5016110;28;20048;-74
2021/05/20 11:54:13;;;;;;;9.80;3.60;;;;;;;;;;5015367;28;20067;-75
2021/05/20 11:56:39;;;;;;;4.40;3.00;;;;;;;;;;5015247;28;20022;-73
2021/05/20 11:59:05;;;;;;;3.67;2.55;;;;;;;;;;5015945;28;20113;-73
2021/05/20 12:01:33;;;;;;;15.07;2.72;;;;;;;;;;5015015;28;20468;-73
2021/05/20 12:03:59;;;;;;;3.90;2.78;;;;;;;;;;5014519;28;20022;-73
2021/05/20 12:06:26;;;;;;;2.45;2.25;;;;;;;;;;5014584;28;20113;-73
2021/05/20 12:09:07;;;;;;;6.50;2.75;;;;;;;;;;5014579;28;20038;-73
2021/05/20 12:11:33;;;;;;;;;;;;;;;;;;5014875;28;20054;-73
2021/05/20 12:13:59;;;;;;;2.85;2.45;;;;;;;;;;5014669;28;19905;-73
2021/05/20 12:16:26;;;;;;;3.83;2.63;;;;;;;;;;5014362;28;20026;-73
2021/05/20 12:18:52;;;;;;;11.27;2.30;;;;;;;;;;5014186;28;20486;-73
2021/05/20 12:21:19;;;;;;;6.00;2.13;;;;;;;;;;5014073;28;20054;-73
2021/05/20 12:23:54;;;;;;;8.00;2.80;;;;;;;;;;5013841;28;20049;-72
2021/05/20 12:26:24;;;;;;;6.80;2.75;;;;;;;;;;5014117;28;20450;-73
2021/05/20 12:28:50;;;;;;;6.57;2.47;;;;;;;;;;5014517;28;20371;-76
2021/05/20 12:31:18;;;;;;;3.20;2.22;;;;;;;;;;5014679;28;20021;-73
2021/05/20 12:33:46;;;;;;;4.05;2.60;;;;;;;;;;5014584;28;20110;-75
2021/05/20 12:36:27;;;;;;;3.47;2.30;;;;;;;;;;5014036;28;20033;-74
2021/05/20 12:38:53;;;;;;;3.33;2.23;;;;;;;;;;5014779;28;20033;-74
2021/05/20 12:41:19;;;;;;;3.47;2.17;;;;;;;;;;5013360;28;20740;-73
2021/05/20 12:43:45;;;;;;;3.55;2.42;;;;;;;;;;5014140;28;20099;-73
2021/05/20 12:46:13;;;;;;;7.30;2.72;;;;;;;;;;5013560;28;20030;-73
2021/05/20 12:48:39;;;;;;;4.70;3.13;;;;;;;;;;5012894;28;20096;-74
2021/05/20 12:51:25;;;;;;;3.08;2.70;;;;;;;;;;5013102;28;20367;-73
2021/05/20 12:54:07;;;;;;;7.65;3.08;;;;;;;;;;4997046;28;20026;-73
2021/05/20 12:56:34;;;;;;;3.22;2.83;;;;;;;;;;5011390;28;20021;-72
2021/05/20 12:59:03;;;;;;;4.38;3.25;;;;;;;;;;5012163;28;20054;-74
2021/05/20 13:01:45;;;;;;;3.45;3.00;;;;;;;;;;5012232;28;20017;-72
2021/05/20 13:04:12;;;;;;;2.75;2.45;;;;;;;;;;5010460;28;20426;-73
2021/05/20 13:06:38;;;;;;;5.95;3.28;;;;;;;;;;5013146;28;20036;-73
2021/05/20 13:09:06;;;;;;;2.85;2.65;;;;;;;;;;5012304;28;20053;-74
2021/05/20 13:11:33;;;;;;;3.33;2.83;;;;;;;;;;5012294;28;20049;-75
2021/05/20 13:14:34;;;;;;;5.80;2.88;;;;;;;;;;5012195;28;20032;-73
2021/05/20 13:20:16;;;;;;;3.00;2.78;;;;;;;;;;4998740;28;20041;-74
2021/05/20 13:22:41;;;;;;;3.17;2.67;;;;;;;;;;4999097;28;20046;-73
2021/05/20 13:25:12;;;;;;;10.68;2.95;;;;;;;;;;5010192;28;20029;-73
2021/05/20 13:27:38;;;;;;;12.60;3.13;;;;;;;;;;5013804;28;20088;-73
2021/05/20 13:30:06;;;;;;;2.63;2.40;;;;;;;;;;5013533;28;20065;-73
2021/05/20 13:32:37;;;;;;;7.18;2.42;;;;;;;;;;5013151;28;20022;-73
2021/05/20 13:35:05;;;;;;;4.25;2.67;;;;;;;;;;5013817;28;20029;-74
2021/05/20 13:37:31;;;;;;;12.02;2.63;;;;;;;;;;5014811;28;20117;-74
2021/05/20 13:39:58;;;;;;;6.18;2.85;;;;;;;;;;5015097;28;20022;-74
2021/05/20 13:42:24;;;;;;;3.67;3.03;;;;;;;;;;5014367;28;20048;-79
2021/05/20 13:44:54;;;;;;;2.60;2.40;;;;;;;;;;5014448;28;20026;-75
2021/05/20 13:47:20;;;;;;;4.30;2.78;;;;;;;;;;5013619;28;20026;-77
2021/05/20 13:49:46;;;;;;;6.28;2.88;;;;;;;;;;5013014;28;20038;-74
2021/05/20 13:52:16;;;;;;;4.90;2.70;;;;;;;;;;5014376;28;20065;-75
2021/05/20 13:54:43;;;;;;;7.65;2.42;;;;;;;;;;5014877;28;20033;-75
2021/05/20 13:57:09;;;;;;;10.63;3.28;;;;;;;;;;5013250;28;20550;-72
2021/05/20 13:59:36;;;;;;;3.30;2.30;;;;;;;;;;5013757;28;20092;-71
2021/05/20 14:02:06;;;;;;;9.52;3.10;;;;;;;;;;5012958;28;20030;-72
2021/05/20 14:04:37;;;;;;;3.63;2.55;;;;;;;;;;5015297;28;20034;-73
2021/05/20 14:07:04;;;;;;;4.28;2.17;;;;;;;;;;5017422;28;20057;-71
2021/05/20 14:09:30;;;;;;;7.55;2.92;;;;;;;;;;5017140;28;20092;-74
2021/05/20 14:11:56;;;;;;;4.85;2.70;;;;;;;;;;5013423;28;20080;-72
2021/05/20 14:14:22;;;;;;;8.88;2.90;;;;;;;;;;5015360;28;20033;-73
2021/05/20 14:16:48;;;;;;;7.85;2.10;;;;;;;;;;5017380;28;20113;-72
2021/05/20 14:19:14;;;;;;;6.32;2.30;;;;;;;;;;5018156;28;20063;-72
2021/05/20 14:21:40;;;;;;;3.55;2.63;;;;;;;;;;5016927;28;20030;-74
2021/05/20 14:24:07;;;;;;;7.78;2.33;;;;;;;;;;5016967;28;20441;-74
2021/05/20 14:26:33;;;;;;;4.95;1.63;;;;;;;;;;5017167;28;20108;-71
2021/05/20 14:28:59;;;;;;;2.20;2.00;;;;;;;;;;5016193;28;20438;-75
2021/05/20 14:31:25;;;;;;;4.35;2.42;;;;;;;;;;5016893;28;20126;-73
2021/05/20 14:33:51;;;;;;;4.25;2.72;;;;;;;;;;5017195;28;20026;-73
2021/05/20 14:36:17;;;;;;;7.10;2.70;;;;;;;;;;5017327;28;20029;-76
2021/05/20 14:38:43;;;;;;;5.53;2.95;;;;;;;;;;5018129;28;20025;-74
2021/05/20 14:41:09;;;;;;;7.68;2.70;;;;;;;;;;5016764;28;20052;-74
2021/05/20 14:43:35;;;;;;;7.78;2.53;;;;;;;;;;5015156;28;20077;-75
2021/05/20 14:46:02;;;;;;;3.30;2.95;;;;;;;;;;5016332;28;20084;-75
2021/05/20 14:48:28;;;;;;;5.88;2.53;;;;;;;;;;5014715;28;20033;-75
2021/05/20 14:51:07;;;;;;;9.45;3.13;;;;;;;;;;5014753;28;20030;-76
2021/05/20 14:53:35;;;;;;;2.97;2.60;;;;;;;;;;5015303;28;20030;-74
2021/05/20 14:56:07;;;;;;;5.93;3.15;;;;;;;;;;5016146;28;20025;-76
2021/05/20 15:06:51;;;;;;;8.10;2.72;;;;;;;;;;5016037;28;20034;-75
2021/05/20 15:09:29;;;;;;;13.68;2.75;;;;;;;;;;5015549;28;20435;-75
2021/05/20 15:12:04;;;;;;;11.57;2.45;;;;;;;;;;5031486;28;20515;-77
2021/05/20 15:14:37;;;;;;;12.98;2.88;;;;;;;;;;5035148;28;20028;-76
2021/05/20 15:17:05;;;;;;;5.82;3.05;;;;;;;;;;5035428;28;20032;-77
2021/05/20 15:19:31;;;;;;;8.52;2.80;;;;;;;;;;5036080;28;20036;-78
2021/05/20 15:21:57;;;;;;;12.93;2.90;;;;;;;;;;5036118;28;20383;-77
2021/05/20 15:24:24;;;;;;;3.10;2.53;;;;;;;;;;5036211;28;20113;-78
2021/05/20 15:26:50;;;;;;;6.32;2.85;;;;;;;;;;5036233;28;20033;-79
2021/05/20 15:29:16;;;;;;;6.40;2.65;;;;;;;;;;5035861;28;20040;-78
2021/05/20 15:31:43;;;;;;;2.97;2.33;;;;;;;;;;5035608;28;20030;-75
2021/05/20 15:34:09;;;;;;;4.72;2.65;;;;;;;;;;5035603;28;20029;-76
2021/05/20 15:36:37;;;;;;;4.00;2.17;;;;;;;;;;5035560;28;20049;-75
2021/05/20 15:39:04;;;;;;;3.80;2.45;;;;;;;;;;5035866;28;20108;-76
2021/05/20 15:41:30;;;;;;;3.28;2.40;;;;;;;;;;5035844;28;20112;-76
2021/05/20 15:43:56;;;;;;;5.40;2.25;;;;;;;;;;5035927;28;20034;-77
2021/05/20 15:46:23;;;;;;;6.80;2.58;;;;;;;;;;5035649;28;20029;-78
2021/05/20 15:51:35;;;;;;;3.90;2.30;;;;;;;;;;5021277;28;20360;-78
2021/05/20 15:54:02;;;;;;;3.17;2.70;;;;;;;;;;5035732;28;20455;-79
2021/05/20 15:56:29;;;;;;;2.85;2.55;;;;;;;;;;5035611;28;20468;-77
2021/05/20 15:58:56;;;;;;;6.93;3.38;;;;;;;;;;5035382;28;20082;-80
2021/05/20 16:01:22;;;;;;;2.47;2.28;;;;;;;;;;5036050;28;20376;-80
2021/05/20 16:03:48;;;;;;;9.10;2.53;;;;;;;;;;5035698;28;20383;-76
2021/05/20 16:06:15;;;;;;;2.35;2.15;;;;;;;;;;5035354;28;20472;-77
2021/05/20 16:08:49;;;;;;;3.88;2.55;;;;;;;;;;5034978;28;20368;-76
2021/05/20 16:11:29;;;;;;;4.40;3.03;;;;;;;;;;5035538;28;20050;-79
2021/05/20 16:16:41;;;;;;;4.50;3.25;;;;;;;;;;5020400;28;20034;-74
2021/05/20 16:19:07;;;;;;;3.53;2.92;;;;;;;;;;5035412;28;20025;-74
2021/05/20 16:21:34;;;;;;;6.20;2.90;;;;;;;;;;5034954;28;20029;-73
2021/05/20 16:27:10;;;;;;;3.60;2.65;;;;;;;;;;5019481;28;20552;-74
2021/05/20 16:37:51;;;;;;;4.82;2.45;;;;;;;;;;4999285;28;20518;-75
2021/05/20 16:40:17;;;;;;;4.07;2.63;;;;;;;;;;5013151;28;20034;-75
2021/05/20 16:42:44;;;;;;;7.85;2.88;;;;;;;;;;5010673;28;20101;-74
2021/05/20 16:45:10;;;;;;;10.18;3.13;;;;;;;;;;5011769;28;20034;-74
2021/05/20 16:47:36;;;;;;;11.07;3.10;;;;;;;;;;5013973;28;20026;-73
2021/05/20 16:50:02;;;;;;;6.05;2.88;;;;;;;;;;5013602;28;20037;-75
2021/05/20 16:52:32;;;;;;;4.63;3.40;;;;;;;;;;5014285;28;20472;-75
2021/05/20 16:55:07;;;;;;;11.13;3.55;;;;;;;;;;5013663;28;20030;-75
2021/05/20 16:57:42;;;;;;;12.98;3.15;;;;;;;;;;5013536;28;20518;-73
2021/05/20 17:00:09;;;;;;;3.10;2.33;;;;;;;;;;5012336;28;20088;-76
2021/05/20 17:02:35;;;;;;;3.33;2.22;;;;;;;;;;5013332;28;20030;-74
2021/05/20 17:05:01;;;;;;;5.95;3.40;;;;;;;;;;5014190;28;20030;-73
2021/05/20 17:07:27;;;;;;;5.45;2.88;;;;;;;;;;5013219;28;20499;-72
2021/05/20 17:09:55;;;;;;;4.75;3.20;;;;;;;;;;5013255;28;20030;-74
2021/05/20 17:12:21;;;;;;;5.20;2.83;;;;;;;;;;5013565;28;20050;-72
2021/05/20 17:14:47;;;;;;;8.18;3.47;;;;;;;;;;5014230;28;20026;-74
2021/05/20 17:17:13;;;;;;;4.30;2.38;;;;;;;;;;5013669;28;20022;-73
2021/05/20 17:19:39;;;;;;;6.10;3.03;;;;;;;;;;5009940;28;20029;-72
2021/05/20 17:22:05;;;;;;;3.25;2.83;;;;;;;;;;5013348;28;20033;-74
2021/05/20 17:24:31;;;;;;;9.70;3.35;;;;;;;;;;5013212;28;20022;-73
2021/05/20 17:26:57;;;;;;;6.93;2.67;;;;;;;;;;5014478;28;20168;-73
2021/05/20 17:29:23;;;;;;;6.82;2.78;;;;;;;;;;5018091;28;20025;-74
2021/05/20 17:31:49;;;;;;;8.27;3.15;;;;;;;;;;5024726;28;20108;-74
2021/05/20 17:34:16;;;;;;;4.55;2.55;;;;;;;;;;5013484;28;20026;-73
2021/05/20 17:36:42;;;;;;;3.47;2.80;;;;;;;;;;5012366;28;20041;-73
2021/05/20 17:39:08;;;;;;;2.58;2.35;;;;;;;;;;5012190;28;20427;-75
2021/05/20 17:41:34;;;;;;;3.55;2.67;;;;;;;;;;5011714;28;20105;-73
2021/05/20 17:44:00;;;;;;;2.85;2.47;;;;;;;;;;5013837;28;20026;-74
2021/05/20 17:46:26;;;;;;;3.92;2.63;;;;;;;;;;5013223;28;20034;-74
2021/05/20 17:48:52;;;;;;;3.60;2.80;;;;;;;;;;5013868;28;20034;-72
2021/05/20 17:51:18;;;;;;;3.58;3.05;;;;;;;;;;5012043;28;20096;-73
2021/05/20 17:53:44;;;;;;;4.40;2.53;;;;;;;;;;5014433;28;20440;-76
2021/05/20 17:56:11;;;;;;;4.75;2.90;;;;;;;;;;5013446;28;20026;-73
2021/05/20 17:58:39;;;;;;;4.57;2.67;;;;;;;;;;5013391;28;20116;-72
2021/05/20 18:01:05;;;;;;;15.80;6.00;;;;;;;;;;5013078;28;20550;-71
2021/05/20 18:03:31;;;;;;;11.90;8.55;;;;;;;;;;5012534;28;20036;-71
2021/05/20 18:05:57;;;;;;;5.85;5.25;;;;;;;;;;5012795;28;20029;-73
2021/05/20 18:08:31;;;;;;;8.73;4.82;;;;;;;;;;5012793;28;20026;-73
2021/05/20 18:11:29;;;;;;;13.88;4.88;;;;;;;;;;5012100;28;20144;-73
2021/05/20 18:13:53;;;;;;;6.70;4.38;;;;;;;;;;5009742;28;20048;-75
2021/05/20 18:16:51;;;;;;;14.20;4.53;;;;;;;;;;5030726;28;20030;-74
2021/05/20 18:19:17;;;;;;;5.75;5.15;;;;;;;;;;5017774;28;20033;-74
2021/05/20 18:24:29;;;;;;;9.77;4.75;;;;;;;;;;4997533;28;21418;-74
2021/05/20 18:26:55;;;;;;;10.23;4.68;;;;;;;;;;5011199;28;20026;-71
2021/05/20 18:29:23;;;;;;;5.90;5.18;;;;;;;;;;5010192;28;20058;-74
2021/05/20 18:31:55;;;;;;;6.43;5.00;;;;;;;;;;5010279;28;20033;-73
2021/05/20 18:34:21;;;;;;;9.70;4.07;;;;;;;;;;5010711;28;20022;-75
2021/05/20 18:36:47;;;;;;;7.55;5.82;;;;;;;;;;5010289;28;20022;-74
2021/05/20 18:39:22;;;;;;;6.90;5.50;;;;;;;;;;5010715;28;20380;-74
2021/05/20 18:41:48;;;;;;;9.93;4.97;;;;;;;;;;5009294;28;20025;-73
2021/05/20 18:44:19;;;;;;;6.95;6.32;;;;;;;;;;5011101;28;20037;-72
2021/05/20 18:46:45;;;;;;;11.33;6.83;;;;;;;;;;5012924;28;20049;-71
2021/05/20 18:49:22;;;;;;;7.90;6.25;;;;;;;;;;5012824;28;20050;-70
2021/05/20 18:51:50;;;;;;;7.20;6.47;;;;;;;;;;5016542;28;20030;-71
2021/05/20 18:54:16;;;;;;;7.25;6.07;;;;;;;;;;5016098;28;20032;-71
2021/05/20 18:56:44;;;;;;;11.80;8.38;;;;;;;;;;5016167;28;20118;-72
2021/05/20 18:59:11;;;;;;;9.65;6.93;;;;;;;;;;5016555;28;20032;-71
2021/05/20 19:01:37;;;;;;;7.97;7.13;;;;;;;;;;5015802;28;20839;-71
2021/05/20 19:04:05;;;;;;;8.30;7.53;;;;;;;;;;5016130;28;20030;-72
2021/05/20 19:06:31;;;;;;;9.13;8.18;;;;;;;;;;5015737;28;20108;-70
2021/05/20 19:08:58;;;;;;;9.75;8.07;;;;;;;;;;5015870;28;20033;-71
2021/05/20 19:11:25;;;;;;;11.43;6.80;;;;;;;;;;5015350;28;20057;-72
2021/05/20 19:13:51;;;;;;;15.85;14.35;;;;;;;;;;5016598;28;20026;-70
2021/05/20 19:16:17;;;;;;;11.38;9.00;;;;;;;;;;5015329;28;20060;-72
2021/05/20 19:18:52;;;;;;;19.92;11.10;;;;;;;;;;5016578;28;20472;-71
2021/05/20 19:21:20;;;;;;;13.88;10.63;;;;;;;;;;5015628;28;20025;-69
2021/05/20 19:23:48;;;;;;;12.93;11.52;;;;;;;;;;5015645;28;20029;-73
2021/05/20 19:26:14;;;;;;;10.23;9.23;;;;;;;;;;5016032;28;20072;-71
2021/05/20 19:28:43;;;;;;;10.68;9.68;;;;;;;;;;5015929;28;20480;-72
2021/05/20 19:31:12;;;;;;;12.55;11.30;;;;;;;;;;5015524;28;20046;-71
2021/05/20 19:33:38;;;;;;;12.30;11.05;;;;;;;;;;5015582;28;20021;-72
2021/05/20 19:36:04;;;;;;;11.23;10.20;;;;;;;;;;5015647;28;20025;-72
2021/05/20 19:38:30;;;;;;;11.20;10.20;;;;;;;;;;5014603;28;20014;-72
2021/05/20 19:40:56;;;;;;;12.25;9.48;;;;;;;;;;5016233;28;20563;-71
2021/05/20 19:43:22;;;;;;;12.38;11.30;;;;;;;;;;5015279;28;20447;-71
2021/05/20 19:45:48;;;;;;;11.45;10.25;;;;;;;;;;5015256;28;20018;-71